createdAt,value
2022-08-22T00:00:13.401Z,53.90
2022-08-22T00:02:52.977Z,59.30
2022-08-22T00:02:55.205Z,64.00
2022-08-22T00:03:00.571Z,56.40
2022-08-22T00:03:02.618Z,68.50
2022-08-22T00:03:17.333Z,54.20
2022-08-22T00:06:05.668Z,54.50
2022-08-22T00:08:44.123Z,53.80
2022-08-22T00:11:23.771Z,53.90
2022-08-22T00:14:02.280Z,54.20
2022-08-22T00:16:41.281Z,55.70
2022-08-22T00:19:20.366Z,56.00
2022-08-22T00:21:58.464Z,56.60
2022-08-22T00:24:36.769Z,57.80
2022-08-22T00:27:17.519Z,60.20
2022-08-22T00:29:54.568Z,57.80
2022-08-22T00:32:32.275Z,57.20
2022-08-22T00:35:07.046Z,57.50
2022-08-22T00:37:44.773Z,56.40
2022-08-22T00:40:33.852Z,55.50
2022-08-22T00:43:31.340Z,56.10
2022-08-22T00:46:26.979Z,55.30
2022-08-22T00:49:32.650Z,57.50
2022-08-22T00:52:38.037Z,57.20
2022-08-22T00:55:35.199Z,59.10
2022-08-22T00:58:38.996Z,58.00
2022-08-22T01:01:14.329Z,59.00
2022-08-22T01:04:08.864Z,59.30
2022-08-22T01:06:50.116Z,60.00
2022-08-22T01:09:33.912Z,60.10
2022-08-22T01:12:21.711Z,61.30
2022-08-22T01:14:56.409Z,62.70
2022-08-22T01:18:00.238Z,63.40
2022-08-22T01:21:14.852Z,62.50
2022-08-22T01:24:24.907Z,60.90
2022-08-22T01:27:42.472Z,61.40
2022-08-22T01:30:33.456Z,61.40
2022-08-22T01:34:02.408Z,61.10
2022-08-22T01:37:06.809Z,59.10
2022-08-22T01:39:55.197Z,60.10
2022-08-22T01:42:55.185Z,61.80
2022-08-22T01:45:50.742Z,63.30
2022-08-22T01:48:26.900Z,67.50
2022-08-22T01:51:03.039Z,69.20
2022-08-22T01:53:47.236Z,72.30
2022-08-22T01:56:22.378Z,74.40
2022-08-22T01:59:01.752Z,75.40
2022-08-22T02:01:46.887Z,75.60
2022-08-22T02:04:23.374Z,72.80
2022-08-22T02:07:05.514Z,72.60
2022-08-22T02:09:46.921Z,69.00
2022-08-22T02:12:32.882Z,69.40
2022-08-22T02:15:15.899Z,69.90
2022-08-22T02:18:07.225Z,72.00
2022-08-22T02:20:42.455Z,72.80
2022-08-22T02:23:27.205Z,75.40
2022-08-22T02:26:08.203Z,75.50
2022-08-22T02:28:56.686Z,76.50
2022-08-22T02:31:40.984Z,76.70
2022-08-22T02:34:41.000Z,77.40
2022-08-22T02:37:17.836Z,78.40
2022-08-22T02:39:55.323Z,77.50
2022-08-22T02:42:35.616Z,76.50
2022-08-22T02:45:24.100Z,76.30
2022-08-22T02:48:01.736Z,77.20
2022-08-22T02:50:41.319Z,79.00
2022-08-22T02:53:26.978Z,77.30
2022-08-22T02:56:04.333Z,77.10
2022-08-22T02:58:46.591Z,77.10
2022-08-22T03:01:41.766Z,76.30
2022-08-22T03:04:29.850Z,77.70
2022-08-22T03:07:10.307Z,78.10
2022-08-22T03:09:46.027Z,78.60
2022-08-22T03:12:27.497Z,79.90
2022-08-22T03:15:04.890Z,80.00
2022-08-22T03:17:41.630Z,81.30
2022-08-22T03:20:16.489Z,81.60
2022-08-22T03:22:54.422Z,81.90
2022-08-22T03:25:33.947Z,82.70
2022-08-22T03:28:12.914Z,82.30
2022-08-22T03:30:47.823Z,82.70
2022-08-22T03:33:22.339Z,83.80
2022-08-22T03:36:07.491Z,83.60
2022-08-22T03:38:55.133Z,83.50
2022-08-22T03:41:53.067Z,84.20
2022-08-22T03:45:00.144Z,83.80
2022-08-22T03:48:10.488Z,85.90
2022-08-22T03:51:06.288Z,84.20
2022-08-22T03:54:09.183Z,82.80
2022-08-22T03:57:12.975Z,80.80
2022-08-22T04:00:02.631Z,80.20
2022-08-22T04:03:04.668Z,81.00
2022-08-22T04:06:00.973Z,81.10
2022-08-22T04:09:04.392Z,81.20
2022-08-22T04:12:04.731Z,82.90
2022-08-22T04:15:00.440Z,82.60
2022-08-22T04:17:54.966Z,82.90
2022-08-22T04:21:00.279Z,82.80
2022-08-22T04:24:00.404Z,82.30
2022-08-22T04:26:43.391Z,82.80
2022-08-22T04:29:22.059Z,83.00
2022-08-22T04:32:02.465Z,83.20
2022-08-22T04:34:40.697Z,82.80
2022-08-22T04:37:17.868Z,80.50
2022-08-22T04:39:54.822Z,79.10
2022-08-22T04:42:34.276Z,79.20
2022-08-22T04:45:11.435Z,77.50
2022-08-22T04:47:54.011Z,77.10
2022-08-22T04:50:28.780Z,76.90
2022-08-22T04:53:33.264Z,78.00
2022-08-22T04:56:13.859Z,77.50
2022-08-22T04:58:49.225Z,78.10
2022-08-22T05:01:21.645Z,79.50
2022-08-22T05:03:59.951Z,80.80
2022-08-22T05:06:32.732Z,79.90
2022-08-22T05:09:10.864Z,79.80
2022-08-22T05:11:45.616Z,80.50
2022-08-22T05:14:22.383Z,83.00
2022-08-22T05:16:56.966Z,82.10
2022-08-22T05:19:35.588Z,83.20
2022-08-22T05:22:09.365Z,82.40
2022-08-22T05:24:44.943Z,83.70
2022-08-22T05:27:18.973Z,83.50
2022-08-22T05:29:52.544Z,82.90
2022-08-22T05:32:28.191Z,84.40
2022-08-22T05:35:04.065Z,85.50
2022-08-22T05:37:40.532Z,83.90
2022-08-22T05:40:20.307Z,85.80
2022-08-22T05:42:51.654Z,87.00
2022-08-22T05:45:23.130Z,87.40
2022-08-22T05:47:58.203Z,87.80
2022-08-22T05:50:38.399Z,89.00
2022-08-22T05:53:13.573Z,90.30
2022-08-22T05:55:55.749Z,90.20
2022-08-22T05:58:47.816Z,90.10
2022-08-22T06:01:32.113Z,90.90
2022-08-22T06:04:10.490Z,90.20
2022-08-22T06:06:47.131Z,90.00
2022-08-22T06:09:25.064Z,90.30
2022-08-22T06:12:21.669Z,88.20
2022-08-22T06:15:02.600Z,89.50
2022-08-22T06:17:47.928Z,90.70
2022-08-22T06:20:22.185Z,91.40
2022-08-22T06:22:58.604Z,90.90
2022-08-22T06:25:33.145Z,90.40
2022-08-22T06:28:08.744Z,91.30
2022-08-22T06:30:41.163Z,92.10
2022-08-22T06:33:15.523Z,92.20
2022-08-22T06:36:08.278Z,91.30
2022-08-22T06:38:59.575Z,92.70
2022-08-22T06:41:33.531Z,93.10
2022-08-22T06:44:06.756Z,93.40
2022-08-22T06:46:40.454Z,94.30
2022-08-22T06:49:13.294Z,94.00
2022-08-22T06:51:45.000Z,94.10
2022-08-22T06:54:21.335Z,94.40
2022-08-22T06:56:53.930Z,94.70
2022-08-22T06:59:30.105Z,95.70
2022-08-22T07:02:06.497Z,95.70
2022-08-22T07:04:37.416Z,96.00
2022-08-22T07:07:09.220Z,96.00
2022-08-22T07:09:44.131Z,96.60
2022-08-22T07:12:20.219Z,97.30
2022-08-22T07:14:53.624Z,97.60
2022-08-22T07:17:27.124Z,97.70
2022-08-22T07:20:02.537Z,97.20
2022-08-22T07:22:37.376Z,97.90
2022-08-22T07:25:13.746Z,97.40
2022-08-22T07:28:00.960Z,98.60
2022-08-22T07:30:47.624Z,98.50
2022-08-22T07:33:38.004Z,98.70
2022-08-22T07:36:29.591Z,99.20
2022-08-22T07:39:28.283Z,98.10
2022-08-22T07:42:09.381Z,98.40
2022-08-22T07:44:50.868Z,99.00
2022-08-22T07:47:26.279Z,99.90
2022-08-22T07:50:00.143Z,99.90
2022-08-22T07:52:37.461Z,99.90
2022-08-22T07:55:18.072Z,99.90
2022-08-22T07:57:55.813Z,99.90
2022-08-22T08:00:29.786Z,99.90
2022-08-22T08:03:05.214Z,99.90
2022-08-22T08:05:38.362Z,99.90
2022-08-22T08:08:15.540Z,99.90
2022-08-22T08:10:46.932Z,99.90
2022-08-22T08:13:24.428Z,99.90
2022-08-22T08:15:55.812Z,99.90
2022-08-22T08:18:29.300Z,99.90
2022-08-22T08:21:07.620Z,99.90
2022-08-22T08:23:43.951Z,99.90
2022-08-22T08:26:18.239Z,99.90
2022-08-22T08:28:53.413Z,99.90
2022-08-22T08:31:30.367Z,99.90
2022-08-22T08:34:06.558Z,99.90
2022-08-22T08:36:48.306Z,99.90
2022-08-22T08:39:35.069Z,99.90
2022-08-22T08:42:55.312Z,99.90
2022-08-22T08:45:53.043Z,99.90
2022-08-22T08:48:52.620Z,99.90
2022-08-22T08:51:59.388Z,99.90
2022-08-22T08:54:52.434Z,99.90
2022-08-22T08:57:40.403Z,99.90
2022-08-22T09:00:14.059Z,99.90
2022-08-22T09:03:09.152Z,99.90
2022-08-22T09:06:09.089Z,99.90
2022-08-22T09:09:00.532Z,99.90
2022-08-22T09:11:58.349Z,99.90
2022-08-22T09:14:58.319Z,99.90
2022-08-22T09:18:19.592Z,99.90
2022-08-22T09:21:30.522Z,99.90
2022-08-22T09:24:39.480Z,99.90
2022-08-22T09:27:17.612Z,99.90
2022-08-22T09:29:55.333Z,99.90
2022-08-22T09:32:48.674Z,99.90
2022-08-22T09:35:29.007Z,99.90
2022-08-22T09:38:24.772Z,99.90
2022-08-22T09:41:03.198Z,99.90
2022-08-22T09:43:44.174Z,99.90
2022-08-22T09:46:21.635Z,99.90
2022-08-22T09:49:06.519Z,99.90
2022-08-22T09:51:47.682Z,99.90
2022-08-22T09:54:38.291Z,99.90
2022-08-22T09:57:29.380Z,99.90
2022-08-22T10:00:17.444Z,99.90
2022-08-22T10:03:12.527Z,99.90
2022-08-22T10:05:48.809Z,99.90
2022-08-22T10:08:49.304Z,99.90
2022-08-22T10:11:30.323Z,99.90
2022-08-22T10:14:07.278Z,99.90
2022-08-22T10:16:55.989Z,99.90
2022-08-22T10:19:32.848Z,99.90
2022-08-22T10:22:32.796Z,99.90
2022-08-22T10:25:25.000Z,99.90
2022-08-22T10:28:10.442Z,99.90
2022-08-22T10:30:52.730Z,99.90
2022-08-22T10:33:30.757Z,99.90
2022-08-22T10:36:12.066Z,99.90
2022-08-22T10:38:47.994Z,99.90
2022-08-22T10:41:30.125Z,99.90
2022-08-22T10:44:07.647Z,99.90
2022-08-22T10:46:49.879Z,99.90
2022-08-22T10:49:28.962Z,99.90
2022-08-22T10:52:15.270Z,99.90
2022-08-22T10:54:53.804Z,99.90
2022-08-22T10:57:40.840Z,99.90
2022-08-22T11:00:33.559Z,99.90
2022-08-22T11:03:21.341Z,99.90
2022-08-22T11:05:55.856Z,99.90
2022-08-22T11:09:00.303Z,99.90
2022-08-22T11:11:49.025Z,99.90
2022-08-22T11:15:00.696Z,99.90
2022-08-22T11:18:13.036Z,99.90
2022-08-22T11:20:54.984Z,99.90
2022-08-22T11:23:37.004Z,99.90
2022-08-22T11:26:16.111Z,99.90
2022-08-22T11:29:24.522Z,99.90
2022-08-22T11:32:07.822Z,99.90
2022-08-22T11:34:51.108Z,99.90
2022-08-22T11:37:42.830Z,99.90
2022-08-22T11:40:27.681Z,99.90
2022-08-22T11:43:18.136Z,99.90
2022-08-22T11:45:51.331Z,99.90
2022-08-22T11:48:28.009Z,99.90
2022-08-22T11:51:13.133Z,99.90
2022-08-22T11:53:49.998Z,99.90
2022-08-22T11:56:29.932Z,99.90
2022-08-22T11:59:07.620Z,99.90
2022-08-22T12:01:44.605Z,99.90
2022-08-22T12:04:22.638Z,99.90
2022-08-22T12:07:10.172Z,99.90
2022-08-22T12:09:55.959Z,99.90
2022-08-22T12:12:42.147Z,99.90
2022-08-22T12:15:29.990Z,99.90
2022-08-22T12:18:40.390Z,99.90
2022-08-22T12:21:52.078Z,99.90
2022-08-22T12:25:02.937Z,99.90
2022-08-22T12:28:08.196Z,99.90
2022-08-22T12:30:48.592Z,99.90
2022-08-22T12:33:42.923Z,99.90
2022-08-22T12:36:41.139Z,99.90
2022-08-22T12:39:46.407Z,99.90
2022-08-22T12:42:40.213Z,99.90
2022-08-22T12:45:44.879Z,99.90
2022-08-22T12:48:26.544Z,99.90
2022-08-22T12:51:17.597Z,99.90
2022-08-22T12:54:21.200Z,99.90
2022-08-22T12:57:01.752Z,99.90
2022-08-22T12:59:35.700Z,99.90
2022-08-22T13:02:19.656Z,99.90
2022-08-22T13:04:57.231Z,99.90
2022-08-22T13:07:31.517Z,99.90
2022-08-22T13:10:05.876Z,99.90
2022-08-22T13:12:44.127Z,99.90
2022-08-22T13:15:29.966Z,99.90
2022-08-22T13:18:25.189Z,99.90
2022-08-22T13:20:56.304Z,99.90
2022-08-22T13:23:30.186Z,99.90
2022-08-22T13:26:10.700Z,99.90
2022-08-22T13:28:53.869Z,99.90
2022-08-22T13:31:39.035Z,99.90
2022-08-22T13:34:13.883Z,99.90
2022-08-22T13:36:53.324Z,99.90
2022-08-22T13:39:31.079Z,99.90
2022-08-22T13:42:04.403Z,99.90
2022-08-22T13:44:47.823Z,99.90
2022-08-22T13:47:23.691Z,99.90
2022-08-22T13:49:57.088Z,99.90
2022-08-22T13:52:37.925Z,99.90
2022-08-22T13:55:13.606Z,99.90
2022-08-22T13:57:51.758Z,99.90
2022-08-22T14:01:01.764Z,99.90
2022-08-22T14:03:42.163Z,99.90
2022-08-22T14:06:38.016Z,99.90
2022-08-22T14:09:31.408Z,99.90
2022-08-22T14:12:16.126Z,99.90
2022-08-22T14:14:48.516Z,99.90
2022-08-22T14:17:26.043Z,99.90
2022-08-22T14:20:03.686Z,99.90
2022-08-22T14:22:40.574Z,99.90
2022-08-22T14:25:21.422Z,99.90
2022-08-22T14:28:00.896Z,99.90
2022-08-22T14:30:34.830Z,99.90
2022-08-22T14:33:15.508Z,99.90
2022-08-22T14:35:52.946Z,99.90
2022-08-22T14:38:31.278Z,99.90
2022-08-22T14:41:06.585Z,99.90
2022-08-22T14:43:52.496Z,99.90
2022-08-22T14:46:27.579Z,99.90
2022-08-22T14:49:51.000Z,99.90
2022-08-22T14:52:40.601Z,99.90
2022-08-22T14:55:24.615Z,99.90
2022-08-22T14:58:03.290Z,99.90
2022-08-22T15:00:41.080Z,99.90
2022-08-22T15:03:18.833Z,99.90
2022-08-22T15:05:52.778Z,99.90
2022-08-22T15:08:31.732Z,99.90
2022-08-22T15:11:12.274Z,99.90
2022-08-22T15:13:52.446Z,99.90
2022-08-22T15:16:25.856Z,99.90
2022-08-22T15:18:57.471Z,99.90
2022-08-22T15:21:30.171Z,99.90
2022-08-22T15:24:08.764Z,99.90
2022-08-22T15:26:43.004Z,99.90
2022-08-22T15:29:20.734Z,99.90
2022-08-22T15:31:54.924Z,99.90
2022-08-22T15:34:33.323Z,99.90
2022-08-22T15:37:12.035Z,99.90
2022-08-22T15:42:47.847Z,99.30
2022-08-22T15:45:24.779Z,98.20
2022-08-22T15:47:56.855Z,98.00
2022-08-22T15:50:39.609Z,94.70
2022-08-22T15:53:22.671Z,94.40
2022-08-22T15:56:30.427Z,95.70
2022-08-22T15:59:23.468Z,93.00
2022-08-22T16:01:57.390Z,85.30
2022-08-22T16:04:43.297Z,78.10
2022-08-22T16:07:29.983Z,74.40
2022-08-22T16:10:03.471Z,72.70
2022-08-22T16:12:38.996Z,70.00
2022-08-22T16:15:54.142Z,61.50
2022-08-22T16:19:03.510Z,57.90
2022-08-22T16:25:12.216Z,52.20
2022-08-22T16:27:59.863Z,53.30
2022-08-22T16:30:42.032Z,53.10
2022-08-22T16:33:17.965Z,52.70
2022-08-22T16:36:27.926Z,53.70
2022-08-22T16:39:00.691Z,57.30
2022-08-22T16:41:37.688Z,58.10
2022-08-22T16:44:39.663Z,57.50
2022-08-22T16:47:15.788Z,55.10
2022-08-22T16:50:07.271Z,53.50
2022-08-22T16:53:00.226Z,53.30
2022-08-22T16:55:56.154Z,50.80
2022-08-22T16:58:59.226Z,50.00
2022-08-22T17:02:17.956Z,49.80
2022-08-22T17:05:05.247Z,51.00
2022-08-22T17:07:47.599Z,50.70
2022-08-22T17:10:43.156Z,50.20
2022-08-22T17:13:27.450Z,48.00
2022-08-22T17:16:16.442Z,48.90
2022-08-22T17:18:59.691Z,49.70
2022-08-22T17:21:35.158Z,49.20
2022-08-22T17:24:32.214Z,46.60
2022-08-22T17:27:12.235Z,45.90
2022-08-22T17:30:00.016Z,45.40
2022-08-22T17:32:39.880Z,44.90
2022-08-22T17:35:23.424Z,46.40
2022-08-22T17:38:11.394Z,44.60
2022-08-22T17:40:55.517Z,45.40
2022-08-22T17:43:48.730Z,45.00
2022-08-22T17:46:34.020Z,44.70
2022-08-22T17:49:15.307Z,46.40
2022-08-22T17:51:55.756Z,43.50
2022-08-22T17:54:35.614Z,45.20
2022-08-22T17:57:13.050Z,45.30
2022-08-22T17:59:51.547Z,46.70
2022-08-22T18:02:27.828Z,45.60
2022-08-22T18:05:07.721Z,47.80
2022-08-22T18:08:03.318Z,47.40
2022-08-22T18:10:46.800Z,44.30
2022-08-22T18:13:34.536Z,43.50
2022-08-22T18:16:10.001Z,42.80
2022-08-22T18:18:43.060Z,46.80
2022-08-22T18:21:23.694Z,47.60
2022-08-22T18:24:00.835Z,44.80
2022-08-22T18:26:39.073Z,43.60
2022-08-22T18:29:15.375Z,44.30
2022-08-22T18:31:55.117Z,46.80
2022-08-22T18:34:36.638Z,45.60
2022-08-22T18:37:21.800Z,44.90
2022-08-22T18:40:00.706Z,44.40
2022-08-22T18:42:38.791Z,45.20
2022-08-22T18:45:10.405Z,43.50
2022-08-22T18:47:41.413Z,46.30
2022-08-22T18:50:31.833Z,45.20
2022-08-22T18:53:02.806Z,45.10
2022-08-22T18:56:03.083Z,46.30
2022-08-22T18:59:05.448Z,45.20
2022-08-22T19:01:52.734Z,45.70
2022-08-22T19:04:43.966Z,44.00
2022-08-22T19:07:50.598Z,45.10
2022-08-22T19:10:43.628Z,46.80
2022-08-22T19:13:41.371Z,44.50
2022-08-22T19:16:27.540Z,46.50
2022-08-22T19:19:00.349Z,43.90
2022-08-22T19:21:50.162Z,43.00
2022-08-22T19:24:59.514Z,43.70
2022-08-22T19:27:32.320Z,43.80
2022-08-22T19:30:08.564Z,44.20
2022-08-22T19:33:01.155Z,44.50
2022-08-22T19:35:44.548Z,43.30
2022-08-22T19:38:35.861Z,43.40
2022-08-22T19:41:06.643Z,44.60
2022-08-22T19:43:41.195Z,44.80
2022-08-22T19:46:15.712Z,46.00
2022-08-22T19:48:50.903Z,46.20
2022-08-22T19:51:31.657Z,46.30
2022-08-22T19:54:20.240Z,47.90
2022-08-22T19:57:05.872Z,47.70
2022-08-22T19:59:51.081Z,48.60
2022-08-22T20:02:35.948Z,48.90
2022-08-22T20:05:24.673Z,50.50
2022-08-22T20:08:16.288Z,46.60
2022-08-22T20:11:00.095Z,48.20
2022-08-22T20:13:35.311Z,47.50
2022-08-22T20:16:19.814Z,47.40
2022-08-22T20:19:19.864Z,47.50
2022-08-22T20:21:59.006Z,49.80
2022-08-22T20:24:39.946Z,51.00
2022-08-22T20:27:16.966Z,51.10
2022-08-22T20:29:53.880Z,52.30
2022-08-22T20:32:26.836Z,51.40
2022-08-22T20:35:02.978Z,51.30
2022-08-22T20:38:04.768Z,54.40
2022-08-22T20:40:55.122Z,51.90
2022-08-22T20:43:35.169Z,52.30
2022-08-22T20:46:43.675Z,52.10
2022-08-22T20:49:20.099Z,53.40
2022-08-22T20:51:59.303Z,53.80
2022-08-22T20:54:31.783Z,52.60
2022-08-22T20:57:04.754Z,52.90
2022-08-22T20:59:38.211Z,50.90
2022-08-22T21:02:17.387Z,53.50
2022-08-22T21:04:55.703Z,52.30
2022-08-22T21:07:33.767Z,52.90
2022-08-22T21:10:24.021Z,53.40
2022-08-22T21:13:11.954Z,52.80
2022-08-22T21:15:46.498Z,52.70
2022-08-22T21:18:27.773Z,54.30
2022-08-22T21:21:08.110Z,53.50
2022-08-22T21:23:53.484Z,53.70
2022-08-22T21:26:28.956Z,55.60
2022-08-22T21:29:02.921Z,54.60
2022-08-22T21:31:36.643Z,53.80
2022-08-22T21:34:07.544Z,52.70
2022-08-22T21:36:41.347Z,53.60
2022-08-22T21:39:23.006Z,53.20
2022-08-22T21:41:55.816Z,54.10
2022-08-22T21:44:35.528Z,52.40
2022-08-22T21:47:30.957Z,55.40
2022-08-22T21:50:08.687Z,53.40
2022-08-22T21:52:41.120Z,53.60
2022-08-22T21:55:27.052Z,52.20
2022-08-22T21:58:13.614Z,53.90
2022-08-22T22:01:05.799Z,53.80
2022-08-22T22:03:41.544Z,53.60
2022-08-22T22:06:12.277Z,55.30
2022-08-22T22:08:43.078Z,56.50
2022-08-22T22:11:17.607Z,56.60
2022-08-22T22:13:49.799Z,55.90
2022-08-22T22:16:27.352Z,56.80
2022-08-22T22:18:58.249Z,55.00
2022-08-22T22:21:29.265Z,55.00
2022-08-22T22:24:00.026Z,56.20
2022-08-22T22:26:33.536Z,55.60
2022-08-22T22:29:05.413Z,55.50
2022-08-22T22:31:39.499Z,56.80
2022-08-22T22:34:10.255Z,56.50
2022-08-22T22:36:43.339Z,56.60
2022-08-22T22:39:14.624Z,57.00
2022-08-22T22:41:46.957Z,56.00
2022-08-22T22:44:17.771Z,57.00
2022-08-22T22:46:52.374Z,56.80
2022-08-22T22:49:23.405Z,57.40
2022-08-22T22:51:54.201Z,55.50
2022-08-22T22:54:27.162Z,57.30
2022-08-22T22:56:59.899Z,58.60
2022-08-22T22:59:32.611Z,57.90
2022-08-22T23:02:06.265Z,57.90
2022-08-22T23:04:39.968Z,57.70
2022-08-22T23:07:11.754Z,57.70
2022-08-22T23:09:44.919Z,57.80
2022-08-22T23:12:18.223Z,56.60
2022-08-22T23:14:53.258Z,56.80
2022-08-22T23:17:24.142Z,56.10
2022-08-22T23:19:55.203Z,57.10
2022-08-22T23:22:25.944Z,57.50
2022-08-22T23:24:56.770Z,56.10
2022-08-22T23:27:29.207Z,57.70
2022-08-22T23:29:59.936Z,55.80
2022-08-22T23:32:30.825Z,55.90
2022-08-22T23:35:01.619Z,57.30
2022-08-22T23:37:32.422Z,57.20
2022-08-22T23:40:03.232Z,56.60
2022-08-22T23:42:35.619Z,57.50
2022-08-22T23:45:08.558Z,57.50
2022-08-22T23:47:39.240Z,56.80
2022-08-22T23:50:10.281Z,57.10
2022-08-22T23:52:41.052Z,57.30
2022-08-22T23:55:12.404Z,57.20
2022-08-22T23:57:44.762Z,56.90
